createdAt,value
2019-04-25T00:00:15.136Z,0.00
2019-04-25T00:01:15.126Z,0.00
2019-04-25T00:02:15.127Z,0.00
2019-04-25T00:03:15.092Z,0.00
2019-04-25T00:04:15.082Z,0.00
2019-04-25T00:05:15.067Z,0.00
2019-04-25T00:06:15.054Z,0.00
2019-04-25T00:07:15.084Z,0.00
2019-04-25T00:08:15.050Z,0.00
2019-04-25T00:09:15.112Z,0.00
2019-04-25T00:10:15.018Z,0.00
2019-04-25T00:11:15.013Z,0.00
2019-04-25T00:12:15.010Z,0.00
2019-04-25T00:13:15.033Z,0.00
2019-04-25T00:14:14.975Z,0.00
2019-04-25T00:15:14.966Z,0.00
2019-04-25T00:16:14.993Z,0.00
2019-04-25T00:17:15.026Z,0.00
2019-04-25T00:18:14.996Z,0.00
2019-04-25T00:19:14.963Z,0.00
2019-04-25T00:20:14.942Z,0.00
2019-04-25T00:21:14.942Z,0.00
2019-04-25T00:22:14.889Z,0.00
2019-04-25T00:23:14.885Z,0.00
2019-04-25T00:24:14.946Z,0.00
2019-04-25T00:25:17.706Z,0.00
2019-04-25T00:26:14.847Z,0.00
2019-04-25T00:27:14.919Z,0.00
2019-04-25T00:28:14.882Z,0.00
2019-04-25T00:29:14.813Z,0.00
2019-04-25T00:30:14.816Z,0.00
2019-04-25T00:31:14.942Z,0.00
2019-04-25T00:32:14.798Z,0.00
2019-04-25T00:33:14.766Z,0.00
2019-04-25T00:34:14.777Z,0.00
2019-04-25T00:35:14.769Z,0.00
2019-04-25T00:36:14.788Z,0.00
2019-04-25T00:37:14.728Z,0.00
2019-04-25T00:38:14.767Z,0.00
2019-04-25T00:39:14.722Z,0.00
2019-04-25T00:40:14.755Z,0.00
2019-04-25T00:41:14.680Z,0.00
2019-04-25T00:42:14.661Z,0.00
2019-04-25T00:43:14.705Z,0.00
2019-04-25T00:44:14.671Z,0.00
2019-04-25T00:45:14.641Z,0.00
2019-04-25T00:46:14.631Z,0.00
2019-04-25T00:47:14.611Z,0.00
2019-04-25T00:48:14.606Z,0.00
2019-04-25T00:49:14.605Z,0.00
2019-04-25T00:50:14.681Z,0.00
2019-04-25T00:51:14.570Z,0.00
2019-04-25T00:52:14.565Z,0.00
2019-04-25T00:53:14.677Z,0.00
2019-04-25T00:54:14.566Z,0.00
2019-04-25T00:55:26.130Z,0.00
2019-04-25T00:56:15.523Z,0.00
2019-04-25T00:57:14.557Z,0.00
2019-04-25T00:58:14.492Z,0.00
2019-04-25T00:59:14.529Z,0.00
2019-04-25T01:00:14.485Z,0.00
2019-04-25T01:01:14.490Z,0.00
2019-04-25T01:02:14.449Z,0.00
2019-04-25T01:03:14.473Z,0.00
2019-04-25T01:04:14.445Z,0.00
2019-04-25T01:05:14.476Z,0.00
2019-04-25T01:06:14.405Z,0.00
2019-04-25T01:07:14.436Z,0.00
2019-04-25T01:08:14.411Z,0.00
2019-04-25T01:09:14.372Z,0.00
2019-04-25T01:10:14.452Z,0.00
2019-04-25T01:11:14.371Z,0.00
2019-04-25T01:12:14.400Z,0.00
2019-04-25T01:13:14.326Z,0.00
2019-04-25T01:14:14.364Z,0.00
2019-04-25T01:15:14.325Z,0.00
2019-04-25T01:16:14.344Z,0.00
2019-04-25T01:17:14.380Z,0.00
2019-04-25T01:18:14.293Z,0.00
2019-04-25T01:19:14.272Z,0.00
2019-04-25T01:20:14.268Z,0.00
2019-04-25T01:21:14.257Z,0.00
2019-04-25T01:22:14.491Z,0.00
2019-04-25T01:23:14.250Z,0.00
2019-04-25T01:24:15.706Z,0.00
2019-04-25T01:25:14.244Z,0.00
2019-04-25T01:26:14.266Z,0.00
2019-04-25T01:27:14.178Z,0.00
2019-04-25T01:28:14.168Z,0.00
2019-04-25T01:29:14.193Z,0.00
2019-04-25T01:30:14.198Z,0.00
2019-04-25T01:31:14.176Z,0.00
2019-04-25T01:32:14.136Z,0.00
2019-04-25T01:33:14.122Z,0.00
2019-04-25T01:34:14.294Z,0.00
2019-04-25T01:35:14.106Z,0.00
2019-04-25T01:36:14.118Z,0.00
2019-04-25T01:37:14.119Z,0.00
2019-04-25T01:38:14.058Z,0.00
2019-04-25T01:39:14.416Z,0.00
2019-04-25T01:40:14.152Z,0.00
2019-04-25T01:41:14.585Z,0.00
2019-04-25T01:42:14.012Z,0.00
2019-04-25T01:43:14.010Z,0.00
2019-04-25T01:44:14.350Z,0.00
2019-04-25T01:45:14.159Z,0.00
2019-04-25T01:46:14.888Z,0.00
2019-04-25T01:47:14.147Z,0.00
2019-04-25T01:48:13.946Z,0.00
2019-04-25T01:49:14.064Z,0.00
2019-04-25T01:50:13.925Z,0.00
2019-04-25T01:51:14.291Z,0.00
2019-04-25T01:52:13.920Z,0.00
2019-04-25T01:53:14.606Z,0.00
2019-04-25T01:54:14.173Z,0.00
2019-04-25T01:55:13.923Z,0.00
2019-04-25T01:56:13.884Z,0.00
2019-04-25T01:57:14.327Z,0.00
2019-04-25T01:58:13.851Z,0.00
2019-04-25T01:59:15.199Z,0.00
2019-04-25T02:00:14.055Z,0.00
2019-04-25T02:01:14.325Z,0.00
2019-04-25T02:02:14.086Z,0.00
2019-04-25T02:03:13.799Z,0.00
2019-04-25T02:04:13.803Z,0.00
2019-04-25T02:05:13.959Z,0.00
2019-04-25T02:06:13.796Z,0.00
2019-04-25T02:07:13.819Z,0.00
2019-04-25T02:08:14.292Z,0.00
2019-04-25T02:09:13.777Z,0.00
2019-04-25T02:10:13.735Z,0.00
2019-04-25T02:11:14.189Z,0.00
2019-04-25T02:12:15.468Z,0.00
2019-04-25T02:13:13.988Z,0.00
2019-04-25T02:14:13.803Z,0.00
2019-04-25T02:15:13.838Z,0.00
2019-04-25T02:16:14.192Z,0.00
2019-04-25T02:17:14.136Z,0.00
2019-04-25T02:18:13.767Z,0.00
2019-04-25T02:19:14.504Z,0.00
2019-04-25T02:20:14.071Z,0.00
2019-04-25T02:21:13.794Z,0.00
2019-04-25T02:22:14.531Z,0.00
2019-04-25T02:23:14.137Z,0.00
2019-04-25T02:24:13.762Z,0.00
2019-04-25T02:25:13.564Z,0.00
2019-04-25T02:26:18.216Z,0.00
2019-04-25T02:27:13.681Z,0.00
2019-04-25T02:28:13.957Z,0.00
2019-04-25T02:29:13.746Z,0.00
2019-04-25T02:30:15.485Z,0.00
2019-04-25T02:31:15.369Z,0.00
2019-04-25T02:32:14.602Z,0.00
2019-04-25T02:33:14.225Z,0.00
2019-04-25T02:34:15.308Z,0.00
2019-04-25T02:35:14.722Z,0.00
2019-04-25T02:36:15.084Z,0.00
2019-04-25T02:37:14.588Z,0.00
2019-04-25T02:38:16.533Z,0.00
2019-04-25T02:39:14.843Z,0.00
2019-04-25T02:40:14.178Z,0.00
2019-04-25T02:41:14.751Z,0.00
2019-04-25T02:42:14.328Z,0.00
2019-04-25T02:43:14.258Z,0.00
2019-04-25T02:44:14.570Z,0.00
2019-04-25T02:45:16.094Z,0.00
2019-04-25T02:46:15.135Z,0.00
2019-04-25T02:47:14.782Z,0.00
2019-04-25T02:48:14.202Z,0.00
2019-04-25T02:49:28.959Z,0.00
2019-04-25T02:50:15.066Z,0.00
2019-04-25T02:51:14.594Z,0.00
2019-04-25T02:52:17.656Z,0.00
2019-04-25T02:53:14.180Z,0.00
2019-04-25T02:54:13.981Z,0.00
2019-04-25T02:55:29.479Z,0.00
2019-04-25T02:56:30.482Z,0.00
2019-04-25T02:57:14.707Z,0.00
2019-04-25T02:58:14.150Z,0.00
2019-04-25T02:59:14.938Z,0.00
2019-04-25T03:00:14.958Z,0.00
2019-04-25T03:01:19.453Z,0.00
2019-04-25T03:02:15.359Z,0.00
2019-04-25T03:03:14.887Z,0.00
2019-04-25T03:04:14.420Z,0.00
2019-04-25T03:05:14.261Z,0.00
2019-04-25T03:06:15.021Z,0.00
2019-04-25T03:07:16.841Z,0.00
2019-04-25T03:08:14.275Z,0.00
2019-04-25T03:09:15.412Z,0.00
2019-04-25T03:10:14.861Z,0.00
2019-04-25T03:11:14.930Z,0.00
2019-04-25T03:12:26.778Z,0.00
2019-04-25T03:13:14.826Z,0.00
2019-04-25T03:14:14.707Z,0.00
2019-04-25T03:15:14.472Z,4.00
2019-04-25T03:16:14.018Z,4.00
2019-04-25T03:17:14.385Z,0.00
2019-04-25T03:18:15.266Z,0.00
2019-04-25T03:19:14.146Z,4.00
2019-04-25T03:20:14.829Z,4.00
2019-04-25T03:21:16.955Z,4.00
2019-04-25T03:22:15.073Z,4.00
2019-04-25T03:23:14.510Z,4.00
2019-04-25T03:24:15.925Z,8.00
2019-04-25T03:25:17.091Z,4.00
2019-04-25T03:26:13.530Z,8.00
2019-04-25T03:27:14.254Z,8.00
2019-04-25T03:28:13.537Z,12.00
2019-04-25T03:29:13.677Z,12.00
2019-04-25T03:30:16.635Z,12.00
2019-04-25T03:31:18.677Z,12.00
2019-04-25T03:32:19.344Z,16.00
2019-04-25T03:33:19.109Z,16.00
2019-04-25T03:34:19.267Z,20.00
2019-04-25T03:35:14.512Z,20.00
2019-04-25T03:36:13.979Z,24.00
2019-04-25T03:37:13.758Z,24.00
2019-04-25T03:38:14.413Z,24.00
2019-04-25T03:39:14.836Z,28.00
2019-04-25T03:40:13.988Z,32.00
2019-04-25T03:41:14.644Z,32.00
2019-04-25T03:42:14.098Z,40.00
2019-04-25T03:43:14.633Z,40.00
2019-04-25T03:44:13.955Z,48.00
2019-04-25T03:45:14.016Z,48.00
2019-04-25T03:46:14.212Z,52.00
2019-04-25T03:47:13.567Z,60.00
2019-04-25T03:48:13.945Z,64.00
2019-04-25T03:49:13.949Z,68.00
2019-04-25T03:50:13.974Z,76.00
2019-04-25T03:51:15.381Z,84.00
2019-04-25T03:52:14.152Z,88.00
2019-04-25T03:53:13.909Z,100.00
2019-04-25T03:54:14.116Z,112.00
2019-04-25T03:55:14.287Z,128.00
2019-04-25T03:56:14.479Z,148.00
2019-04-25T03:57:14.335Z,172.00
2019-04-25T03:58:13.107Z,200.00
2019-04-25T03:59:14.694Z,232.00
2019-04-25T04:00:14.354Z,264.00
2019-04-25T04:01:13.822Z,296.00
2019-04-25T04:02:13.525Z,324.00
2019-04-25T04:03:14.237Z,356.00
2019-04-25T04:04:15.767Z,376.00
2019-04-25T04:05:13.926Z,412.00
2019-04-25T04:06:14.220Z,448.00
2019-04-25T04:07:14.317Z,492.00
2019-04-25T04:08:12.490Z,544.00
2019-04-25T04:09:13.930Z,592.00
2019-04-25T04:10:14.219Z,632.00
2019-04-25T04:11:14.080Z,668.00
2019-04-25T04:12:12.439Z,704.00
2019-04-25T04:13:14.198Z,732.00
2019-04-25T04:14:14.409Z,764.00
2019-04-25T04:15:14.389Z,792.00
2019-04-25T04:16:14.121Z,824.00
2019-04-25T04:17:14.438Z,856.00
2019-04-25T04:18:14.448Z,888.00
2019-04-25T04:19:13.130Z,936.00
2019-04-25T04:20:14.501Z,984.00
2019-04-25T04:21:13.575Z,1020.00
2019-04-25T04:22:13.690Z,1056.00
2019-04-25T04:23:13.489Z,1100.00
2019-04-25T04:24:13.836Z,1160.00
2019-04-25T04:25:13.650Z,1236.00
2019-04-25T04:26:13.666Z,1336.00
2019-04-25T04:27:12.240Z,1416.00
2019-04-25T04:28:13.791Z,1496.00
2019-04-25T04:29:13.802Z,1572.00
2019-04-25T04:30:12.268Z,1632.00
2019-04-25T04:31:12.598Z,1680.00
2019-04-25T04:32:12.578Z,1708.00
2019-04-25T04:33:23.089Z,1732.00
2019-04-25T04:34:14.674Z,1740.00
2019-04-25T04:35:14.621Z,1748.00
2019-04-25T04:36:14.470Z,1756.00
2019-04-25T04:37:13.951Z,1752.00
2019-04-25T04:38:12.134Z,1748.00
2019-04-25T04:39:13.869Z,1740.00
2019-04-25T04:40:12.124Z,1740.00
2019-04-25T04:41:12.096Z,1744.00
2019-04-25T04:42:13.702Z,1752.00
2019-04-25T04:43:12.145Z,1768.00
2019-04-25T04:44:12.049Z,1788.00
2019-04-25T04:45:13.636Z,1808.00
2019-04-25T04:46:13.620Z,1836.00
2019-04-25T04:47:13.657Z,1868.00
2019-04-25T04:48:14.106Z,1892.00
2019-04-25T04:49:12.779Z,1912.00
2019-04-25T04:50:14.162Z,1932.00
2019-04-25T04:51:14.208Z,1960.00
2019-04-25T04:52:12.908Z,1988.00
2019-04-25T04:53:12.820Z,2020.00
2019-04-25T04:54:13.514Z,2068.00
2019-04-25T04:55:14.626Z,2140.00
2019-04-25T04:56:11.922Z,2224.00
2019-04-25T04:57:26.117Z,2316.00
2019-04-25T04:58:14.605Z,2392.00
2019-04-25T04:59:12.861Z,2444.00
2019-04-25T05:00:14.153Z,2488.00
2019-04-25T05:01:13.040Z,2528.00
2019-04-25T05:02:14.618Z,2580.00
2019-04-25T05:03:13.023Z,2616.00
2019-04-25T05:04:12.649Z,2664.00
2019-04-25T05:05:14.240Z,2724.00
2019-04-25T05:06:11.829Z,2824.00
2019-04-25T05:07:11.799Z,2892.00
2019-04-25T05:08:12.974Z,2920.00
2019-04-25T05:09:12.472Z,3020.00
2019-04-25T05:10:14.493Z,2976.00
2019-04-25T05:11:12.944Z,3052.00
2019-04-25T05:12:11.747Z,3128.00
2019-04-25T05:13:12.157Z,3196.00
2019-04-25T05:14:11.849Z,3296.00
2019-04-25T05:15:12.465Z,3480.00
2019-04-25T05:16:12.558Z,3668.00
2019-04-25T05:17:12.224Z,3936.00
2019-04-25T05:18:12.721Z,4360.00
2019-04-25T05:19:12.893Z,4832.00
2019-04-25T05:20:11.997Z,5248.00
2019-04-25T05:21:11.874Z,5532.00
2019-04-25T05:22:13.002Z,5700.00
2019-04-25T05:23:11.971Z,5760.00
2019-04-25T05:24:12.838Z,5920.00
2019-04-25T05:25:13.440Z,6004.00
2019-04-25T05:26:12.190Z,6076.00
2019-04-25T05:27:12.775Z,5960.00
2019-04-25T05:28:13.004Z,5960.00
2019-04-25T05:29:11.588Z,5560.00
2019-04-25T05:30:11.578Z,5108.00
2019-04-25T05:31:14.115Z,4732.00
2019-04-25T05:32:11.546Z,4412.00
2019-04-25T05:33:11.526Z,4176.00
2019-04-25T05:34:11.515Z,3996.00
2019-04-25T05:35:13.201Z,4052.00
2019-04-25T05:36:11.508Z,5640.00
2019-04-25T05:37:11.474Z,10036.00
2019-04-25T05:38:13.222Z,17408.00
2019-04-25T05:39:11.457Z,17792.00
2019-04-25T05:40:11.494Z,17824.00
2019-04-25T05:41:11.506Z,8992.00
2019-04-25T05:42:11.424Z,6240.00
2019-04-25T05:43:11.501Z,4500.00
2019-04-25T05:44:11.417Z,4784.00
2019-04-25T05:45:11.394Z,4156.00
2019-04-25T05:46:13.177Z,4480.00
2019-04-25T05:47:11.366Z,4972.00
2019-04-25T05:48:11.408Z,4428.00
2019-04-25T05:49:11.346Z,10788.00
2019-04-25T05:50:11.422Z,18016.00
2019-04-25T05:51:11.340Z,17920.00
2019-04-25T05:52:11.374Z,11480.00
2019-04-25T05:53:11.310Z,20320.00
2019-04-25T05:54:11.346Z,23904.00
2019-04-25T05:55:11.288Z,25248.00
2019-04-25T05:56:11.307Z,24544.00
2019-04-25T05:57:11.267Z,27488.00
2019-04-25T05:58:11.265Z,32000.00
2019-04-25T05:59:11.315Z,29600.00
2019-04-25T06:00:11.235Z,29216.00
2019-04-25T06:01:11.246Z,32736.00
2019-04-25T06:02:11.275Z,32448.00
2019-04-25T06:03:11.240Z,31872.00
2019-04-25T06:04:11.186Z,33856.00
2019-04-25T06:05:11.221Z,33888.00
2019-04-25T06:06:11.173Z,34368.00
2019-04-25T06:07:11.168Z,37344.00
2019-04-25T06:08:11.141Z,38304.00
2019-04-25T06:09:11.140Z,36896.00
2019-04-25T06:10:11.157Z,37792.00
2019-04-25T06:11:11.129Z,37216.00
2019-04-25T06:12:11.124Z,36288.00
2019-04-25T06:13:11.104Z,40640.00
2019-04-25T06:14:11.079Z,44800.00
2019-04-25T06:15:11.067Z,43168.00
2019-04-25T06:16:11.061Z,41376.00
2019-04-25T06:17:11.066Z,41504.00
2019-04-25T06:18:11.050Z,40832.00
2019-04-25T06:19:13.998Z,41312.00
2019-04-25T06:20:13.459Z,43328.00
2019-04-25T06:21:11.007Z,44800.00
2019-04-25T06:22:11.080Z,43136.00
2019-04-25T06:23:10.995Z,41024.00
2019-04-25T06:24:10.984Z,43552.00
2019-04-25T06:25:13.808Z,29632.00
2019-04-25T06:26:23.048Z,33120.00
2019-04-25T06:27:11.978Z,45344.00
2019-04-25T06:28:10.939Z,41472.00
2019-04-25T06:29:10.925Z,44608.00
2019-04-25T06:30:10.911Z,45440.00
2019-04-25T06:31:10.955Z,48992.00
2019-04-25T06:32:10.895Z,35296.00
2019-04-25T06:33:10.947Z,19296.00
2019-04-25T06:34:10.875Z,22432.00
2019-04-25T06:35:10.857Z,26368.00
2019-04-25T06:36:10.849Z,23552.00
2019-04-25T06:37:10.846Z,16608.00
2019-04-25T06:38:10.847Z,15872.00
2019-04-25T06:39:10.819Z,15712.00
2019-04-25T06:40:10.881Z,17408.00
2019-04-25T06:41:10.797Z,23648.00
2019-04-25T06:42:10.789Z,46720.00
2019-04-25T06:43:10.805Z,17632.00
2019-04-25T06:44:10.769Z,16448.00
2019-04-25T06:45:10.815Z,51296.00
2019-04-25T06:46:10.743Z,55776.00
2019-04-25T06:47:10.792Z,49248.00
2019-04-25T06:48:10.809Z,30176.00
2019-04-25T06:49:10.718Z,19008.00
2019-04-25T06:50:10.702Z,34944.00
2019-04-25T06:51:10.749Z,40672.00
2019-04-25T06:52:10.695Z,22720.00
2019-04-25T06:53:10.727Z,36288.00
2019-04-25T06:54:10.674Z,25216.00
2019-04-25T06:55:10.648Z,42912.00
2019-04-25T06:56:10.658Z,56896.00
2019-04-25T06:57:10.648Z,56704.00
2019-04-25T06:58:13.983Z,56224.00
2019-04-25T06:59:10.653Z,49760.00
2019-04-25T07:00:10.611Z,44064.00
2019-04-25T07:01:10.601Z,37248.00
2019-04-25T07:02:10.575Z,50592.00
2019-04-25T07:03:10.646Z,51808.00
2019-04-25T07:04:10.566Z,52224.00
2019-04-25T07:05:10.547Z,51968.00
2019-04-25T07:06:10.534Z,51104.00
2019-04-25T07:07:13.124Z,49440.00
2019-04-25T07:08:10.521Z,50688.00
2019-04-25T07:09:10.526Z,54592.00
2019-04-25T07:10:10.496Z,57216.00
2019-04-25T07:11:10.482Z,56640.00
2019-04-25T07:12:10.568Z,56384.00
2019-04-25T07:13:10.462Z,15628.00
2019-04-25T07:14:10.489Z,53088.00
2019-04-25T07:15:10.600Z,54784.00
2019-04-25T07:16:10.440Z,59136.00
2019-04-25T07:17:10.424Z,61600.00
2019-04-25T07:18:10.411Z,62304.00
2019-04-25T07:19:10.492Z,63424.00
2019-04-25T07:20:10.418Z,68032.00
2019-04-25T07:21:10.382Z,71424.00
2019-04-25T07:22:10.378Z,73472.00
2019-04-25T07:23:10.360Z,71648.00
2019-04-25T07:24:10.440Z,68672.00
2019-04-25T07:25:10.404Z,54816.00
2019-04-25T07:26:10.402Z,71488.00
2019-04-25T07:27:10.378Z,75520.00
2019-04-25T07:28:22.865Z,49120.00
2019-04-25T07:29:11.345Z,43392.00
2019-04-25T07:30:10.310Z,52608.00
2019-04-25T07:31:10.282Z,72480.00
2019-04-25T07:32:10.318Z,73152.00
2019-04-25T07:33:10.365Z,72960.00
2019-04-25T07:34:10.247Z,70112.00
2019-04-25T07:35:10.256Z,66784.00
2019-04-25T07:36:10.242Z,61376.00
2019-04-25T07:37:10.220Z,62016.00
2019-04-25T07:38:10.262Z,61696.00
2019-04-25T07:39:10.797Z,57984.00
2019-04-25T07:40:10.215Z,59104.00
2019-04-25T07:41:10.188Z,52864.00
2019-04-25T07:42:10.225Z,60160.00
2019-04-25T07:43:10.169Z,61536.00
2019-04-25T07:44:10.147Z,64832.00
2019-04-25T07:45:10.195Z,63680.00
2019-04-25T07:46:10.129Z,59520.00
2019-04-25T07:47:10.129Z,54368.00
2019-04-25T07:48:10.103Z,53792.00
2019-04-25T07:49:10.093Z,54112.00
2019-04-25T07:50:10.191Z,57920.00
2019-04-25T07:51:10.080Z,62016.00
2019-04-25T07:52:11.559Z,65664.00
2019-04-25T07:53:10.095Z,65312.00
2019-04-25T07:54:10.061Z,49568.00
2019-04-25T07:55:10.062Z,46080.00
2019-04-25T07:56:10.028Z,56160.00
2019-04-25T07:57:10.343Z,48672.00
2019-04-25T07:58:10.011Z,27008.00
2019-04-25T07:59:10.029Z,27712.00
2019-04-25T08:00:10.027Z,69216.00
2019-04-25T08:01:09.983Z,63584.00
2019-04-25T08:02:09.969Z,62240.00
2019-04-25T08:03:10.073Z,61024.00
2019-04-25T08:04:09.968Z,61952.00
2019-04-25T08:05:10.042Z,67136.00
2019-04-25T08:06:09.935Z,73280.00
2019-04-25T08:07:09.917Z,74528.00
2019-04-25T08:08:09.967Z,73728.00
2019-04-25T08:09:09.901Z,73984.00
2019-04-25T08:10:09.893Z,75136.00
2019-04-25T08:11:09.964Z,74240.00
2019-04-25T08:12:09.915Z,67040.00
2019-04-25T08:13:09.860Z,62080.00
2019-04-25T08:14:09.857Z,69152.00
2019-04-25T08:15:09.884Z,63808.00
2019-04-25T08:16:09.857Z,72928.00
2019-04-25T08:17:09.820Z,69440.00
2019-04-25T08:18:09.816Z,74400.00
2019-04-25T08:19:09.798Z,70208.00
2019-04-25T08:20:09.809Z,50240.00
2019-04-25T08:21:09.914Z,35136.00
2019-04-25T08:22:09.779Z,56416.00
2019-04-25T08:23:09.764Z,60352.00
2019-04-25T08:24:09.752Z,35104.00
2019-04-25T08:25:09.742Z,9628.00
2019-04-25T08:26:09.878Z,17536.00
2019-04-25T08:27:09.741Z,32384.00
2019-04-25T08:28:09.738Z,33120.00
2019-04-25T08:29:09.704Z,21632.00
2019-04-25T08:30:09.699Z,8420.00
2019-04-25T08:31:09.727Z,13608.00
2019-04-25T08:32:09.691Z,12824.00
2019-04-25T08:33:09.703Z,7312.00
2019-04-25T08:34:09.654Z,6284.00
2019-04-25T08:35:09.650Z,6152.00
2019-04-25T08:36:09.646Z,6144.00
2019-04-25T08:37:18.153Z,14968.00
2019-04-25T08:38:10.637Z,11628.00
2019-04-25T08:39:09.608Z,9712.00
2019-04-25T08:40:09.586Z,6332.00
2019-04-25T08:41:09.612Z,6712.00
2019-04-25T08:42:09.572Z,7252.00
2019-04-25T08:43:09.552Z,31904.00
2019-04-25T08:44:09.603Z,48032.00
2019-04-25T08:45:09.538Z,38496.00
2019-04-25T08:46:09.530Z,29888.00
2019-04-25T08:47:09.608Z,27648.00
2019-04-25T08:48:09.498Z,7160.00
2019-04-25T08:49:09.626Z,7492.00
2019-04-25T08:50:09.488Z,7316.00
2019-04-25T08:51:09.480Z,7392.00
2019-04-25T08:52:09.531Z,8884.00
2019-04-25T08:53:09.534Z,10504.00
2019-04-25T08:54:09.440Z,9064.00
2019-04-25T08:55:09.430Z,9580.00
2019-04-25T08:56:09.491Z,20032.00
2019-04-25T08:57:09.429Z,43040.00
2019-04-25T08:58:09.448Z,58592.00
2019-04-25T08:59:09.390Z,54816.00
2019-04-25T09:00:09.410Z,40768.00
2019-04-25T09:01:09.375Z,53856.00
2019-04-25T09:02:09.516Z,27104.00
2019-04-25T09:03:09.410Z,26272.00
2019-04-25T09:04:09.413Z,8960.00
2019-04-25T09:05:09.323Z,7908.00
2019-04-25T09:06:09.328Z,8396.00
2019-04-25T09:07:09.521Z,11016.00
2019-04-25T09:08:09.363Z,15936.00
2019-04-25T09:09:09.292Z,16704.00
2019-04-25T09:10:09.277Z,30400.00
2019-04-25T09:11:09.409Z,31776.00
2019-04-25T09:12:09.305Z,30240.00
2019-04-25T09:13:09.239Z,33216.00
2019-04-25T09:14:09.229Z,40672.00
2019-04-25T09:15:09.224Z,32640.00
2019-04-25T09:16:09.211Z,45760.00
2019-04-25T09:17:09.325Z,36704.00
2019-04-25T09:18:09.197Z,23488.00
2019-04-25T09:19:09.181Z,15140.00
2019-04-25T09:20:09.181Z,11032.00
2019-04-25T09:21:09.161Z,10760.00
2019-04-25T09:22:09.151Z,17632.00
2019-04-25T09:23:09.146Z,7912.00
2019-04-25T09:24:09.153Z,7160.00
2019-04-25T09:25:09.141Z,6900.00
2019-04-25T09:26:09.115Z,8320.00
2019-04-25T09:27:09.095Z,9968.00
2019-04-25T09:28:09.099Z,7092.00
2019-04-25T09:29:18.878Z,7652.00
2019-04-25T09:30:10.062Z,7536.00
2019-04-25T09:31:09.049Z,9028.00
2019-04-25T09:32:09.060Z,8360.00
2019-04-25T09:33:09.053Z,9016.00
2019-04-25T09:34:09.030Z,8564.00
2019-04-25T09:35:09.012Z,8576.00
2019-04-25T09:36:08.996Z,13160.00
2019-04-25T09:37:08.984Z,14244.00
2019-04-25T09:38:09.010Z,9496.00
2019-04-25T09:39:08.969Z,24576.00
2019-04-25T09:40:08.963Z,11204.00
2019-04-25T09:41:09.024Z,22208.00
2019-04-25T09:42:08.959Z,11528.00
2019-04-25T09:43:08.938Z,14076.00
2019-04-25T09:44:08.920Z,13924.00
2019-04-25T09:45:08.911Z,11632.00
2019-04-25T09:46:08.889Z,10940.00
2019-04-25T09:47:08.893Z,11308.00
2019-04-25T09:48:08.880Z,18144.00
2019-04-25T09:49:08.857Z,19648.00
2019-04-25T09:50:08.853Z,32832.00
2019-04-25T09:51:08.843Z,22432.00
2019-04-25T09:52:08.871Z,21696.00
2019-04-25T09:53:15.493Z,18816.00
2019-04-25T09:54:09.812Z,15048.00
2019-04-25T09:55:08.796Z,11908.00
2019-04-25T09:56:08.792Z,12116.00
2019-04-25T09:57:08.782Z,17952.00
2019-04-25T09:58:08.808Z,24928.00
2019-04-25T09:59:08.763Z,17376.00
2019-04-25T10:00:08.744Z,23008.00
2019-04-25T10:01:08.730Z,9776.00
2019-04-25T10:02:08.746Z,17504.00
2019-04-25T10:03:08.745Z,15176.00
2019-04-25T10:04:08.708Z,9320.00
2019-04-25T10:05:08.730Z,7724.00
2019-04-25T10:06:08.681Z,15820.00
2019-04-25T10:07:08.668Z,9568.00
2019-04-25T10:08:08.658Z,7540.00
2019-04-25T10:09:08.660Z,7504.00
2019-04-25T10:10:08.659Z,7232.00
2019-04-25T10:11:08.830Z,9896.00
2019-04-25T10:12:08.622Z,7252.00
2019-04-25T10:13:08.646Z,8436.00
2019-04-25T10:14:08.638Z,7328.00
2019-04-25T10:15:08.592Z,23840.00
2019-04-25T10:16:08.583Z,11172.00
2019-04-25T10:17:08.580Z,9204.00
2019-04-25T10:18:08.573Z,28288.00
2019-04-25T10:19:08.559Z,46400.00
2019-04-25T10:20:08.547Z,28576.00
2019-04-25T10:21:08.576Z,20768.00
2019-04-25T10:22:08.530Z,15048.00
2019-04-25T10:23:08.510Z,11684.00
2019-04-25T10:24:08.548Z,13184.00
2019-04-25T10:25:08.512Z,12192.00
2019-04-25T10:26:08.474Z,18848.00
2019-04-25T10:27:08.464Z,29344.00
2019-04-25T10:28:08.464Z,27168.00
2019-04-25T10:29:08.455Z,30272.00
2019-04-25T10:30:16.775Z,14532.00
2019-04-25T10:31:09.439Z,88832.00
2019-04-25T10:32:08.411Z,34656.00
2019-04-25T10:33:08.403Z,33376.00
2019-04-25T10:34:08.401Z,23808.00
2019-04-25T10:35:08.381Z,25056.00
2019-04-25T10:36:08.367Z,23040.00
2019-04-25T10:37:08.391Z,15264.00
2019-04-25T10:38:08.345Z,20608.00
2019-04-25T10:39:10.858Z,18912.00
2019-04-25T10:40:08.328Z,12196.00
2019-04-25T10:41:08.316Z,11060.00
2019-04-25T10:42:08.300Z,14556.00
2019-04-25T10:43:08.306Z,25632.00
2019-04-25T10:44:08.279Z,8744.00
2019-04-25T10:45:20.412Z,54560.00
2019-04-25T10:46:09.257Z,14616.00
2019-04-25T10:47:08.249Z,16704.00
2019-04-25T10:48:08.235Z,12484.00
2019-04-25T10:49:08.258Z,9072.00
2019-04-25T10:50:08.236Z,13764.00
2019-04-25T10:51:08.225Z,15200.00
2019-04-25T10:52:08.200Z,11520.00
2019-04-25T10:53:08.187Z,21056.00
2019-04-25T10:54:08.180Z,26688.00
2019-04-25T10:55:08.187Z,20704.00
2019-04-25T10:56:08.188Z,27424.00
2019-04-25T10:57:08.154Z,41632.00
2019-04-25T10:58:08.131Z,99392.00
2019-04-25T10:59:08.119Z,94336.00
2019-04-25T11:00:09.626Z,100928.00
2019-04-25T11:01:08.103Z,106848.00
2019-04-25T11:02:08.121Z,110976.00
2019-04-25T11:03:08.105Z,111744.00
2019-04-25T11:04:08.117Z,109632.00
2019-04-25T11:05:08.077Z,106752.00
2019-04-25T11:06:08.065Z,97248.00
2019-04-25T11:07:08.039Z,106528.00
2019-04-25T11:08:08.035Z,107552.00
2019-04-25T11:09:08.021Z,84000.00
2019-04-25T11:10:08.057Z,54304.00
2019-04-25T11:11:08.005Z,7352.00
2019-04-25T11:12:07.996Z,6920.00
2019-04-25T11:13:07.990Z,7856.00
2019-04-25T11:14:07.982Z,12508.00
2019-04-25T11:15:07.980Z,112384.00
2019-04-25T11:16:07.980Z,14444.00
2019-04-25T11:17:07.944Z,19168.00
2019-04-25T11:18:07.940Z,60704.00
2019-04-25T11:19:07.938Z,117632.00
2019-04-25T11:20:07.934Z,9068.00
2019-04-25T11:21:07.913Z,47264.00
2019-04-25T11:22:07.925Z,38080.00
2019-04-25T11:23:07.891Z,6676.00
2019-04-25T11:24:07.993Z,69248.00
2019-04-25T11:25:07.911Z,7264.00
2019-04-25T11:26:07.864Z,10644.00
2019-04-25T11:27:07.876Z,9884.00
2019-04-25T11:28:07.844Z,60128.00
2019-04-25T11:29:07.930Z,74720.00
2019-04-25T11:30:11.143Z,19616.00
2019-04-25T11:31:07.816Z,37344.00
2019-04-25T11:32:07.810Z,21184.00
2019-04-25T11:33:07.806Z,21760.00
2019-04-25T11:34:07.800Z,99040.00
2019-04-25T11:35:07.822Z,93440.00
2019-04-25T11:36:07.864Z,69536.00
2019-04-25T11:37:07.768Z,63392.00
2019-04-25T11:38:08.172Z,32352.00
2019-04-25T11:39:07.756Z,98528.00
2019-04-25T11:40:07.811Z,100576.00
2019-04-25T11:41:07.752Z,56608.00
2019-04-25T11:42:07.721Z,24416.00
2019-04-25T11:43:07.705Z,117280.00
2019-04-25T11:44:07.745Z,112416.00
2019-04-25T11:45:07.707Z,8712.00
2019-04-25T11:46:07.689Z,71264.00
2019-04-25T11:47:08.743Z,13048.00
2019-04-25T11:48:07.662Z,9856.00
2019-04-25T11:49:07.796Z,18624.00
2019-04-25T11:50:07.656Z,6692.00
2019-04-25T11:51:07.634Z,63264.00
2019-04-25T11:52:07.622Z,21344.00
2019-04-25T11:53:07.608Z,54336.00
2019-04-25T11:54:07.635Z,58560.00
2019-04-25T11:55:07.612Z,13800.00
2019-04-25T11:56:07.585Z,9384.00
2019-04-25T11:57:07.580Z,22272.00
2019-04-25T11:58:07.566Z,31296.00
2019-04-25T11:59:07.556Z,26368.00
2019-04-25T12:00:07.640Z,13592.00
2019-04-25T12:01:07.530Z,40864.00
2019-04-25T12:02:07.538Z,29664.00
2019-04-25T12:03:07.537Z,92640.00
2019-04-25T12:04:07.511Z,30016.00
2019-04-25T12:05:07.589Z,96832.00
2019-04-25T12:06:07.502Z,29280.00
2019-04-25T12:07:08.586Z,108288.00
2019-04-25T12:08:07.496Z,7268.00
2019-04-25T12:09:07.463Z,74688.00
2019-04-25T12:10:07.472Z,41280.00
2019-04-25T12:11:07.444Z,41600.00
2019-04-25T12:12:07.449Z,62656.00
2019-04-25T12:13:07.422Z,68320.00
2019-04-25T12:14:07.414Z,84416.00
2019-04-25T12:15:07.419Z,91168.00
2019-04-25T12:16:07.446Z,89568.00